METAR Data
IDs: Format: Raw Decoded Include TAF

Data at: 0912 UTC 13 Aug 2022

ESST 130850Z AUTO 15006KT 9999 NCD 22/13 Q1020